Big Bear Station Historical Data
Daily Summary for September 10, 2017 Units:  English    Metric   Both
« Previous Day
Next Day »
Daily Weekly Monthly Yearly Custom
  High: Low: Average:
Temperature: 75.9 °F 46.2 °F 59.3 °F
Dew Point: 54.8 °F 45.4 °F 50.3 °F
Humidity: 98 % 46 % 76 %
Wind Speed: 8.9 mph 0.0 mph 1.4 mph
Wind Gust: -999.0 mph - -
Wind:- - WSW
Pressure: 30.30 in 30.25 in -
Precipitation: 0.01 in    
Historical Graphs
 
 
Tabular Data for September 10, 2017
Time Temperature Dew Point Pressure Wind Wind Speed Wind Gust Humidity Rainfall Rate (Hourly)
00:07 47.8 °F 46.7 °F 30.29 in Calm   -999.0 mph 96 % 0 in
00:22 48.6 °F 47.5 °F 30.28 in Calm   -999.0 mph 96 % 0 in
00:37 48.6 °F 47.5 °F 30.28 in Calm   -999.0 mph 96 % 0 in
00:53 48.4 °F 47.3 °F 30.28 in Calm   -999.0 mph 96 % 0 in
01:08 48.6 °F 47.5 °F 30.28 in Calm   -999.0 mph 96 % 0 in
01:23 48.6 °F 47.5 °F 30.28 in Calm   -999.0 mph 96 % 0 in
01:38 48.7 °F 47.6 °F 30.28 in Calm   -999.0 mph 96 % 0 in
01:53 49.3 °F 48.2 °F 30.28 in Calm   -999.0 mph 96 % 0 in
02:09 49.6 °F 48.5 °F 30.28 in Calm   -999.0 mph 96 % 0 in
02:24 49.3 °F 48.2 °F 30.28 in Calm   -999.0 mph 96 % 0 in
02:39 49.1 °F 48.0 °F 30.28 in Calm   -999.0 mph 96 % 0 in
02:54 48.9 °F 47.8 °F 30.28 in Calm   -999.0 mph 96 % 0 in
03:10 48.9 °F 47.8 °F 30.28 in Calm   -999.0 mph 96 % 0 in
03:25 48.9 °F 47.8 °F 30.28 in Calm   -999.0 mph 96 % 0 in
03:40 48.6 °F 47.5 °F 30.28 in Calm   -999.0 mph 96 % 0 in
03:55 48.2 °F 47.1 °F 30.27 in Calm   -999.0 mph 96 % 0 in
04:10 48.0 °F 46.9 °F 30.27 in Calm   -999.0 mph 96 % 0 in
04:26 47.7 °F 46.6 °F 30.27 in Calm   -999.0 mph 96 % 0 in
04:41 47.5 °F 46.4 °F 30.27 in Calm   -999.0 mph 96 % 0 in
04:56 47.5 °F 46.7 °F 30.27 in Calm   -999.0 mph 97 % 0 in
05:11 47.5 °F 46.7 °F 30.28 in Calm   -999.0 mph 97 % 0 in
05:26 47.3 °F 46.5 °F 30.28 in Calm   -999.0 mph 97 % 0 in
05:42 47.3 °F 46.5 °F 30.28 in Calm   -999.0 mph 97 % 0 in
05:57 47.1 °F 46.3 °F 30.29 in Calm   -999.0 mph 97 % 0 in
06:12 46.6 °F 45.8 °F 30.28 in Calm   -999.0 mph 97 % 0 in
06:27 46.2 °F 45.4 °F 30.28 in Calm   -999.0 mph 97 % 0 in
06:42 46.4 °F 45.6 °F 30.29 in Calm   -999.0 mph 97 % 0 in
06:58 46.4 °F 45.6 °F 30.29 in Calm   -999.0 mph 97 % 0 in
07:13 46.6 °F 46.1 °F 30.29 in Calm   -999.0 mph 98 % 0 in
07:28 46.9 °F 46.4 °F 30.29 in Calm   -999.0 mph 98 % 0 in
07:43 47.5 °F 47.0 °F 30.30 in Calm   -999.0 mph 98 % 0 in
07:59 47.7 °F 47.2 °F 30.30 in Calm   -999.0 mph 98 % 0 in
08:14 48.7 °F 48.2 °F 30.30 in Calm   -999.0 mph 98 % 0 in
08:29 49.8 °F 49.3 °F 30.30 in Calm   -999.0 mph 98 % 0 in
08:44 51.6 °F 50.2 °F 30.30 in Calm   -999.0 mph 95 % 0 in
08:59 52.0 °F 50.3 °F 30.30 in Calm   -999.0 mph 94 % 0 in
09:15 53.8 °F 51.8 °F 30.30 in Calm   -999.0 mph 93 % 0 in
09:30 57.7 °F 52.9 °F 30.30 in WNW 1.7 mph -999.0 mph 84 % 0 in
09:45 59.0 °F 53.2 °F 30.30 in NNW 2.2 mph -999.0 mph 81 % 0 in
10:00 60.6 °F 53.4 °F 30.29 in Calm   -999.0 mph 77 % 0 in
10:15 63.0 °F 53.1 °F 30.29 in West 4.2 mph -999.0 mph 70 % 0 in
10:31 65.1 °F 52.6 °F 30.29 in SSE 1.7 mph -999.0 mph 64 % 0 in
10:46 68.2 °F 53.8 °F 30.29 in NNW 4.2 mph -999.0 mph 60 % 0 in
11:01 66.9 °F 53.0 °F 30.29 in NNW 4.7 mph -999.0 mph 61 % 0 in
11:16 68.2 °F 52.9 °F 30.28 in SSE 3.2 mph -999.0 mph 58 % 0 in
11:31 69.3 °F 53.9 °F 30.28 in NNW 4.7 mph -999.0 mph 58 % 0 in
11:47 71.2 °F 53.7 °F 30.28 in NNW 6.3 mph -999.0 mph 54 % 0 in
12:02 72.1 °F 53.5 °F 30.28 in NW 2.7 mph -999.0 mph 52 % 0 in
12:17 72.1 °F 53.0 °F 30.28 in NNW 7.3 mph -999.0 mph 51 % 0 in
12:32 75.0 °F 53.4 °F 30.28 in North 2.2 mph -999.0 mph 47 % 0 in
12:47 74.1 °F 53.2 °F 30.27 in North 4.7 mph -999.0 mph 48 % 0 in
13:03 74.7 °F 54.8 °F 30.27 in Calm   -999.0 mph 50 % 0 in
13:18 75.7 °F 54.6 °F 30.27 in NNW 2.7 mph -999.0 mph 48 % 0 in
13:34 73.0 °F 53.8 °F 30.27 in WNW 3.7 mph -999.0 mph 51 % 0 in
13:49 74.3 °F 53.9 °F 30.27 in West 8.9 mph -999.0 mph 49 % 0 in
14:04 75.7 °F 53.5 °F 30.27 in NNE 4.7 mph -999.0 mph 46 % 0 in
14:20 73.8 °F 53.5 °F 30.26 in WNW 5.8 mph -999.0 mph 49 % 0 in
14:35 74.8 °F 53.8 °F 30.26 in North 3.7 mph -999.0 mph 48 % 0 in
14:50 75.2 °F 53.6 °F 30.26 in NE 3.7 mph -999.0 mph 47 % 0 in
15:05 73.9 °F 53.0 °F 30.26 in NNE 3.7 mph -999.0 mph 48 % 0 in
15:21 73.4 °F 53.1 °F 30.26 in NE 5.3 mph -999.0 mph 49 % 0 in
15:36 74.1 °F 53.2 °F 30.25 in North 4.2 mph -999.0 mph 48 % 0 in
15:51 72.0 °F 52.9 °F 30.25 in NNW 2.7 mph -999.0 mph 51 % 0 in
16:07 71.8 °F 53.2 °F 30.26 in WSW 1.7 mph -999.0 mph 52 % 0 in
16:23 71.1 °F 52.6 °F 30.25 in NNW 4.2 mph -999.0 mph 52 % 0 in
16:38 72.9 °F 53.2 °F 30.26 in North 3.2 mph -999.0 mph 50 % 0 in
16:53 74.1 °F 52.6 °F 30.26 in Calm   -999.0 mph 47 % 0 in
17:08 75.2 °F 53.0 °F 30.25 in NNW 4.7 mph -999.0 mph 46 % 0 in
17:24 75.9 °F 53.6 °F 30.25 in NW 1.7 mph -999.0 mph 46 % 0 in
17:39 73.6 °F 53.3 °F 30.25 in Calm   -999.0 mph 49 % 0 in
17:54 72.0 °F 52.9 °F 30.25 in NNE 2.7 mph -999.0 mph 51 % 0 in
18:10 69.4 °F 52.5 °F 30.25 in East 1.7 mph -999.0 mph 55 % 0 in
18:25 68.2 °F 51.9 °F 30.26 in Calm   -999.0 mph 56 % 0 in
18:40 66.9 °F 50.7 °F 30.26 in ESE 1.1 mph -999.0 mph 56 % 0 in
18:56 65.7 °F 51.0 °F 30.26 in Calm   -999.0 mph 59 % 0 in
19:11 64.2 °F 51.3 °F 30.26 in Calm   -999.0 mph 63 % 0 in
19:26 62.8 °F 50.9 °F 30.26 in Calm   -999.0 mph 65 % 0 in
19:41 61.7 °F 50.6 °F 30.26 in Calm   -999.0 mph 67 % 0 in
19:56 60.4 °F 51.0 °F 30.27 in Calm   -999.0 mph 71 % 0 in
20:27 59.0 °F 50.7 °F 30.27 in Calm   -999.0 mph 74 % 0 in
20:42 58.5 °F 51.0 °F 30.28 in Calm   -999.0 mph 76 % 0 in
20:57 57.9 °F 50.7 °F 30.28 in Calm   -999.0 mph 77 % 0 in
21:12 57.7 °F 51.2 °F 30.28 in Calm   -999.0 mph 79 % 0 in
21:28 57.2 °F 50.7 °F 30.28 in Calm   -999.0 mph 79 % 0 in
21:43 57.0 °F 51.2 °F 30.28 in SSW 1.7 mph -999.0 mph 81 % 0 in
21:58 56.3 °F 50.5 °F 30.28 in South 1.7 mph -999.0 mph 81 % 0 in
22:13 55.8 °F 50.1 °F 30.28 in Calm   -999.0 mph 81 % 0 in
22:28 55.2 °F 49.5 °F 30.28 in Calm   -999.0 mph 81 % 0 in
22:44 54.9 °F 49.8 °F 30.28 in SE 1.7 mph -999.0 mph 83 % 0 in
22:59 54.3 °F 49.6 °F 30.28 in Calm   -999.0 mph 84 % 0 in
23:14 53.8 °F 48.8 °F 30.27 in SSE 2.2 mph -999.0 mph 83 % 0 in
23:29 53.2 °F 48.5 °F 30.27 in ESE 1.1 mph -999.0 mph 84 % 0 in
23:44 52.9 °F 48.8 °F 30.27 in SSE 1.1 mph -999.0 mph 86 % 0 in
Big Bear CA Weather
Compliments of Weather Underground - 1.5 mb